A80 TRACON Summary / KATL TAF
ATL TRACON Summary:
High pressure will once again build into the airspace behind the exiting cold front. Expect MVFR in ATL TRACON to improve to VFR by 13Z with mostly clear skies through this afternoon. Surface winds will be northwest at 5-15kts with 25-30kt gusts expected through early afternoon. Hazards in the TRACON airspace: LGT-MOD turbulence below 120.

Updated:1/30/2015 6:12 AM
ATL Terminal Aerodrome Forecast:

FTUS42 KFFC 301720
TAFATL
TAF
KATL 301720Z 3018/3124 33015G27KT P6SM SKC
     FM310000 33008KT P6SM SKC
     FM311200 VRB03KT P6SM SCT180=
ATL TRACON Area Remark:
NONE.
Convective Gate Forecast / Icing Gate Forecast / Vertical Wind Profile (click on image to enlarge)
Convective Gate Forecast
Icing Gate Forecast
table with gate forecasts (convective and CCFP) used April - November while icing gate forecasts are issued
AIRMETs & SIGMETS/ Southeast Radar loop / Satellite Image (click on image to enlarge)

Southeast Radar Loop

 



USA.gov is the U.S. government's official web portal to all federal, state and local government web resources and services.